Hills Terrace, Pennsylvania
Current Conditions -  °F | °C
As of 12:55 PM on Friday 21 Nov 2014 (Local Time) from KHZL Reporting Station
Scattered Clouds Scattered Clouds  
Wind Chill: 23°   Ceiling: Unl
Heat Index: 30°   Visibility: 10mi
Dew Point: 10°   Wind: 8mph
Humidity: 44%   Direction: 280°W
Pressure: 30.29"   Gusts: 20mph
Location:  40.8128°N, 76.1382°W
Report Text: KHZL 211755Z AUTO 28007G17KT 10SM SCT043 M01/M12 A3029 RMK AO2
Loading
Personal Weather Stations






























Interactive Weather Map New forecast layout! Learn more

10-Day Weather Forecast

Advertisements
Track Severe Weather on mobile